createdAt,value
2018-02-14T00:00:11.605Z,58.20
2018-02-14T00:02:39.130Z,57.90
2018-02-14T00:05:08.622Z,59.00
2018-02-14T00:07:36.141Z,57.60
2018-02-14T00:10:03.850Z,58.50
2018-02-14T00:12:31.416Z,58.40
2018-02-14T00:14:58.954Z,59.00
2018-02-14T00:17:26.506Z,59.00
2018-02-14T00:19:54.994Z,58.90
2018-02-14T00:22:22.514Z,58.00
2018-02-14T00:24:50.082Z,58.70
2018-02-14T00:27:18.386Z,59.70
2018-02-14T00:29:45.946Z,59.70
2018-02-14T00:32:13.466Z,60.10
2018-02-14T00:34:40.989Z,61.00
2018-02-14T00:37:08.554Z,61.60
2018-02-14T00:39:36.119Z,62.20
2018-02-14T00:42:03.666Z,61.80
2018-02-14T00:44:31.200Z,61.30
2018-02-14T00:46:58.769Z,61.70
2018-02-14T00:49:26.335Z,61.50
2018-02-14T00:51:53.880Z,61.90
2018-02-14T00:54:21.453Z,61.80
2018-02-14T00:56:49.934Z,62.10
2018-02-14T00:59:17.679Z,61.30
2018-02-14T01:01:47.186Z,61.00
2018-02-14T01:04:15.082Z,61.00
2018-02-14T01:06:43.458Z,60.10
2018-02-14T01:09:10.984Z,60.10
2018-02-14T01:11:38.503Z,59.90
2018-02-14T01:14:06.060Z,60.40
2018-02-14T01:16:34.373Z,60.60
2018-02-14T01:19:07.584Z,60.60
2018-02-14T01:21:35.110Z,60.70
2018-02-14T01:24:02.648Z,60.60
2018-02-14T01:26:30.229Z,60.90
2018-02-14T01:28:57.753Z,61.70
2018-02-14T01:31:25.304Z,62.20
2018-02-14T01:33:52.842Z,62.30
2018-02-14T01:36:20.366Z,62.50
2018-02-14T01:38:48.684Z,62.70
2018-02-14T01:41:16.210Z,62.70
2018-02-14T01:43:43.785Z,63.10
2018-02-14T01:46:11.361Z,62.60
2018-02-14T01:48:38.894Z,63.00
2018-02-14T01:51:06.483Z,63.20
2018-02-14T01:53:34.036Z,63.10
2018-02-14T01:56:01.587Z,63.40
2018-02-14T01:58:29.119Z,64.10
2018-02-14T02:00:56.651Z,63.70
2018-02-14T02:03:24.235Z,63.60
2018-02-14T02:05:52.524Z,63.20
2018-02-14T02:08:20.075Z,63.10
2018-02-14T02:10:47.658Z,63.90
2018-02-14T02:13:15.190Z,63.50
2018-02-14T02:15:43.506Z,64.00
2018-02-14T02:18:11.979Z,63.90
2018-02-14T02:20:39.575Z,64.10
2018-02-14T02:23:07.087Z,64.80
2018-02-14T02:25:34.623Z,64.30
2018-02-14T02:28:04.138Z,64.40
2018-02-14T02:30:32.623Z,64.50
2018-02-14T02:33:00.302Z,64.40
2018-02-14T02:35:27.828Z,64.40
2018-02-14T02:37:56.330Z,63.70
2018-02-14T02:40:31.653Z,64.30
2018-02-14T02:42:59.182Z,65.20
2018-02-14T02:45:26.707Z,65.90
2018-02-14T02:47:54.268Z,65.40
2018-02-14T02:50:21.807Z,64.80
2018-02-14T02:52:51.315Z,65.10
2018-02-14T02:55:18.857Z,64.90
2018-02-14T02:57:46.394Z,64.70
2018-02-14T03:00:13.955Z,64.40
2018-02-14T03:02:41.492Z,64.30
2018-02-14T03:05:09.826Z,64.90
2018-02-14T03:07:37.350Z,64.90
2018-02-14T03:10:04.890Z,65.20
2018-02-14T03:12:33.218Z,66.90
2018-02-14T03:15:00.767Z,66.20
2018-02-14T03:17:28.310Z,66.10
2018-02-14T03:19:56.818Z,65.50
2018-02-14T03:22:25.320Z,65.60
2018-02-14T03:24:54.818Z,65.30
2018-02-14T03:27:22.334Z,65.80
2018-02-14T03:29:49.908Z,65.20
2018-02-14T03:32:17.433Z,64.80
2018-02-14T03:34:44.966Z,63.90
2018-02-14T03:37:12.538Z,64.00
2018-02-14T03:39:40.070Z,64.90
2018-02-14T03:42:07.622Z,63.80
2018-02-14T03:44:35.142Z,63.80
2018-02-14T03:47:02.687Z,64.30
2018-02-14T03:49:30.555Z,64.90
2018-02-14T03:51:58.916Z,64.60
2018-02-14T03:54:26.481Z,64.60
2018-02-14T03:56:54.010Z,63.20
2018-02-14T03:59:21.547Z,61.70
2018-02-14T04:01:49.106Z,62.90
2018-02-14T04:04:16.647Z,62.60
2018-02-14T04:06:44.202Z,62.70
2018-02-14T04:09:12.712Z,63.50
2018-02-14T04:11:40.241Z,64.50
2018-02-14T04:14:07.823Z,65.00
2018-02-14T04:16:35.350Z,65.30
2018-02-14T04:19:03.674Z,65.90
2018-02-14T04:21:31.197Z,66.00
2018-02-14T04:23:58.731Z,66.00
2018-02-14T04:26:27.070Z,66.00
2018-02-14T04:28:54.599Z,65.90
2018-02-14T04:31:22.176Z,66.30
2018-02-14T04:33:49.833Z,66.60
2018-02-14T04:36:17.363Z,66.30
2018-02-14T04:38:45.682Z,66.40
2018-02-14T04:41:13.203Z,66.40
2018-02-14T04:43:40.768Z,66.20
2018-02-14T04:46:08.298Z,66.90
2018-02-14T04:48:36.612Z,66.10
2018-02-14T04:51:04.162Z,66.10
2018-02-14T04:53:31.686Z,65.90
2018-02-14T04:56:00.190Z,66.00
2018-02-14T04:58:28.718Z,66.00
2018-02-14T05:00:56.264Z,66.80
2018-02-14T05:03:23.827Z,66.30
2018-02-14T05:05:51.360Z,66.30
2018-02-14T05:08:18.925Z,66.40
2018-02-14T05:10:46.479Z,66.10
2018-02-14T05:13:14.014Z,66.30
2018-02-14T05:15:42.332Z,67.00
2018-02-14T05:18:09.874Z,67.00
2018-02-14T05:20:40.282Z,67.00
2018-02-14T05:23:08.592Z,67.50
2018-02-14T05:25:36.134Z,67.50
2018-02-14T05:28:03.688Z,69.90
2018-02-14T05:30:32.185Z,70.00
2018-02-14T05:32:59.739Z,69.20
2018-02-14T05:35:27.271Z,69.00
2018-02-14T05:37:54.814Z,68.70
2018-02-14T05:40:22.371Z,68.90
2018-02-14T05:42:49.933Z,68.70
2018-02-14T05:45:19.734Z,68.80
2018-02-14T05:47:47.265Z,68.80
2018-02-14T05:50:14.790Z,69.00
2018-02-14T05:52:42.422Z,68.70
2018-02-14T05:55:09.966Z,68.80
2018-02-14T05:57:37.528Z,68.70
2018-02-14T06:00:06.751Z,68.90
2018-02-14T06:02:36.003Z,68.80
2018-02-14T06:05:03.574Z,68.80
2018-02-14T06:07:31.122Z,69.60
2018-02-14T06:09:58.685Z,69.20
2018-02-14T06:12:26.232Z,69.60
2018-02-14T06:14:54.766Z,70.20
2018-02-14T06:17:22.346Z,69.50
2018-02-14T06:19:49.866Z,69.40
2018-02-14T06:22:17.410Z,70.50
2018-02-14T06:24:45.712Z,69.30
2018-02-14T06:27:13.251Z,69.30
2018-02-14T06:29:40.815Z,70.80
2018-02-14T06:32:08.353Z,70.70
2018-02-14T06:34:35.928Z,70.20
2018-02-14T06:37:04.413Z,70.00
2018-02-14T06:39:31.947Z,69.80
2018-02-14T06:41:59.494Z,69.30
2018-02-14T06:44:27.040Z,69.20
2018-02-14T06:46:54.590Z,69.20
2018-02-14T06:49:22.126Z,69.30
2018-02-14T06:51:50.415Z,69.40
2018-02-14T06:54:19.943Z,69.40
2018-02-14T06:56:47.467Z,68.80
2018-02-14T06:59:17.037Z,69.10
2018-02-14T07:01:55.211Z,69.20
2018-02-14T07:04:32.474Z,69.70
2018-02-14T07:07:00.751Z,70.50
2018-02-14T07:09:28.276Z,67.40
2018-02-14T07:11:55.836Z,68.10
2018-02-14T07:14:23.391Z,67.50
2018-02-14T07:16:50.938Z,68.80
2018-02-14T07:19:18.469Z,68.50
2018-02-14T07:21:46.012Z,68.20
2018-02-14T07:24:13.578Z,67.90
2018-02-14T07:26:41.107Z,67.60
2018-02-14T07:29:09.456Z,68.10
2018-02-14T07:31:36.990Z,68.10
2018-02-14T07:34:04.534Z,67.90
2018-02-14T07:36:32.115Z,68.50
2018-02-14T07:38:59.650Z,67.40
2018-02-14T07:41:27.214Z,67.60
2018-02-14T07:43:55.724Z,67.50
2018-02-14T07:46:23.266Z,67.10
2018-02-14T07:48:50.830Z,66.40
2018-02-14T07:51:19.368Z,65.80
2018-02-14T07:53:46.922Z,64.60
2018-02-14T07:56:14.459Z,64.80
2018-02-14T07:58:42.006Z,64.60
2018-02-14T08:01:09.576Z,63.80
2018-02-14T08:03:38.165Z,64.70
2018-02-14T08:06:05.719Z,64.20
2018-02-14T08:08:33.249Z,64.40
2018-02-14T08:11:00.794Z,63.60
2018-02-14T08:13:28.354Z,63.80
2018-02-14T08:15:55.874Z,64.00
2018-02-14T08:18:24.202Z,62.60
2018-02-14T08:20:51.757Z,62.70
2018-02-14T08:23:19.292Z,63.10
2018-02-14T08:25:46.848Z,63.30
2018-02-14T08:28:15.333Z,63.80
2018-02-14T08:30:42.898Z,63.90
2018-02-14T08:33:10.462Z,64.00
2018-02-14T08:35:37.994Z,63.00
2018-02-14T08:38:05.897Z,63.40
2018-02-14T08:40:33.419Z,63.80
2018-02-14T08:43:01.742Z,62.50
2018-02-14T08:45:29.283Z,62.50
2018-02-14T08:47:56.831Z,62.20
2018-02-14T08:50:24.402Z,61.30
2018-02-14T08:52:51.941Z,60.90
2018-02-14T08:55:19.494Z,61.00
2018-02-14T08:57:47.030Z,60.80
2018-02-14T09:00:15.339Z,62.90
2018-02-14T09:02:43.104Z,62.50
2018-02-14T09:05:10.643Z,62.60
2018-02-14T09:07:39.270Z,60.90
2018-02-14T09:10:07.823Z,60.90
2018-02-14T09:12:35.361Z,60.40
2018-02-14T09:15:02.919Z,60.10
2018-02-14T09:17:31.419Z,58.30
2018-02-14T09:19:59.926Z,58.40
2018-02-14T09:22:27.448Z,57.20
2018-02-14T09:24:54.970Z,55.90
2018-02-14T09:27:22.525Z,55.10
2018-02-14T09:29:50.049Z,54.60
2018-02-14T09:32:17.599Z,52.50
2018-02-14T09:34:45.130Z,52.90
2018-02-14T09:37:12.651Z,53.70
2018-02-14T09:39:40.203Z,54.30
2018-02-14T09:42:07.735Z,54.10
2018-02-14T09:44:35.296Z,54.40
2018-02-14T09:47:02.859Z,54.50
2018-02-14T09:49:30.397Z,54.60
2018-02-14T09:51:57.951Z,53.40
2018-02-14T09:54:26.276Z,53.70
2018-02-14T09:56:53.846Z,53.60
2018-02-14T09:59:21.374Z,53.00
2018-02-14T10:01:48.895Z,53.00
2018-02-14T10:04:16.445Z,54.30
2018-02-14T10:06:43.982Z,53.70
2018-02-14T10:09:11.548Z,54.00
2018-02-14T10:11:39.840Z,53.60
2018-02-14T10:14:07.375Z,53.70
2018-02-14T10:16:34.933Z,52.40
2018-02-14T10:19:02.466Z,53.80
2018-02-14T10:21:30.022Z,52.30
2018-02-14T10:23:57.563Z,51.80
2018-02-14T10:26:25.100Z,53.00
2018-02-14T10:28:52.648Z,53.00
2018-02-14T10:31:20.877Z,51.60
2018-02-14T10:33:48.428Z,49.30
2018-02-14T10:36:16.944Z,50.50
2018-02-14T10:38:44.478Z,51.50
2018-02-14T10:41:12.047Z,51.30
2018-02-14T10:43:39.573Z,50.00
2018-02-14T10:46:07.132Z,48.70
2018-02-14T10:48:35.630Z,48.70
2018-02-14T10:51:03.172Z,49.40
2018-02-14T10:53:30.731Z,47.60
2018-02-14T10:55:58.274Z,46.20
2018-02-14T10:58:25.866Z,44.00
2018-02-14T11:00:59.098Z,40.70
2018-02-14T11:03:32.398Z,42.00
2018-02-14T11:06:05.514Z,43.20
2018-02-14T11:08:33.823Z,45.50
2018-02-14T11:11:01.408Z,45.00
2018-02-14T11:13:28.947Z,45.20
2018-02-14T11:15:56.499Z,46.10
2018-02-14T11:18:24.980Z,45.00
2018-02-14T11:20:52.495Z,45.10
2018-02-14T11:23:20.030Z,44.50
2018-02-14T11:25:47.554Z,44.70
2018-02-14T11:28:15.104Z,44.50
2018-02-14T11:30:42.648Z,44.00
2018-02-14T11:33:10.172Z,44.50
2018-02-14T11:35:38.646Z,43.60
2018-02-14T11:38:06.206Z,43.20
2018-02-14T11:40:33.724Z,44.40
2018-02-14T11:43:01.275Z,45.20
2018-02-14T11:45:28.798Z,44.30
2018-02-14T11:47:56.314Z,43.40
2018-02-14T11:50:25.820Z,43.20
2018-02-14T11:52:53.351Z,42.80
2018-02-14T11:55:20.896Z,41.90
2018-02-14T11:57:48.428Z,41.70
2018-02-14T12:00:15.981Z,41.80
2018-02-14T12:02:43.529Z,42.60
2018-02-14T12:05:11.058Z,41.80
2018-02-14T12:07:38.611Z,41.40
2018-02-14T12:10:06.534Z,42.00
2018-02-14T12:12:34.055Z,41.90
2018-02-14T12:15:01.603Z,40.70
2018-02-14T12:17:29.117Z,41.50
2018-02-14T12:19:57.428Z,39.90
2018-02-14T12:22:24.953Z,39.90
2018-02-14T12:24:52.478Z,40.10
2018-02-14T12:27:20.031Z,40.20
2018-02-14T12:29:47.552Z,39.10
2018-02-14T12:32:17.049Z,38.90
2018-02-14T12:34:44.572Z,40.90
2018-02-14T12:37:12.095Z,40.60
2018-02-14T12:39:41.589Z,40.10
2018-02-14T12:42:09.110Z,39.10
2018-02-14T12:44:39.379Z,40.20
2018-02-14T12:47:06.902Z,40.10
2018-02-14T12:49:38.239Z,40.00
2018-02-14T12:52:06.611Z,39.60
2018-02-14T12:54:34.110Z,39.50
2018-02-14T12:57:02.651Z,39.90
2018-02-14T12:59:30.938Z,40.20
2018-02-14T13:01:58.481Z,40.20
2018-02-14T13:04:26.026Z,39.30
2018-02-14T13:06:53.542Z,39.50
2018-02-14T13:09:21.103Z,38.40
2018-02-14T13:11:49.551Z,39.00
2018-02-14T13:14:17.840Z,39.60
2018-02-14T13:16:46.331Z,39.60
2018-02-14T13:19:13.856Z,40.00
2018-02-14T13:21:41.416Z,40.50
2018-02-14T13:24:09.716Z,41.10
2018-02-14T13:26:38.196Z,41.00
2018-02-14T13:29:05.753Z,41.70
2018-02-14T13:31:33.297Z,41.20
2018-02-14T13:34:01.616Z,42.30
2018-02-14T13:36:29.138Z,42.30
2018-02-14T13:38:57.678Z,42.80
2018-02-14T13:41:26.006Z,43.70
2018-02-14T13:43:53.525Z,43.80
2018-02-14T13:46:22.076Z,43.80
2018-02-14T13:48:49.633Z,43.70
2018-02-14T13:51:17.203Z,43.80
2018-02-14T13:53:44.781Z,43.90
2018-02-14T13:56:12.302Z,43.50
2018-02-14T13:58:39.861Z,41.40
2018-02-14T14:01:07.376Z,40.40
2018-02-14T14:03:34.903Z,40.70
2018-02-14T14:06:02.450Z,40.30
2018-02-14T14:08:29.982Z,40.50
2018-02-14T14:10:57.554Z,39.00
2018-02-14T14:13:25.083Z,38.20
2018-02-14T14:15:53.366Z,37.30
2018-02-14T14:18:21.752Z,37.20
2018-02-14T14:20:49.471Z,37.10
2018-02-14T14:23:17.018Z,37.40
2018-02-14T14:25:44.752Z,36.80
2018-02-14T14:28:12.280Z,36.10
2018-02-14T14:30:39.825Z,37.20
2018-02-14T14:33:07.346Z,36.20
2018-02-14T14:35:35.822Z,36.10
2018-02-14T14:38:03.344Z,35.40
2018-02-14T14:40:30.870Z,34.60
2018-02-14T14:43:00.431Z,35.20
2018-02-14T14:45:27.954Z,35.10
2018-02-14T14:47:56.548Z,35.40
2018-02-14T14:50:24.847Z,37.10
2018-02-14T14:52:52.372Z,37.10
2018-02-14T14:55:19.968Z,37.80
2018-02-14T14:57:47.489Z,37.70
2018-02-14T15:00:17.730Z,38.50
2018-02-14T15:02:46.233Z,38.40
2018-02-14T15:05:13.794Z,39.10
2018-02-14T15:07:41.377Z,39.30
2018-02-14T15:10:09.999Z,39.50
2018-02-14T15:12:38.315Z,39.80
2018-02-14T15:15:06.004Z,39.80
2018-02-14T15:17:33.526Z,39.90
2018-02-14T15:20:01.090Z,40.20
2018-02-14T15:22:29.583Z,40.10
2018-02-14T15:24:57.133Z,40.90
2018-02-14T15:27:24.664Z,42.00
2018-02-14T15:29:52.946Z,42.30
2018-02-14T15:32:20.501Z,42.20
2018-02-14T15:34:48.026Z,41.80
2018-02-14T15:37:16.540Z,41.70
2018-02-14T15:39:44.059Z,42.30
2018-02-14T15:42:12.563Z,41.90
2018-02-14T15:44:40.882Z,40.80
2018-02-14T15:47:08.408Z,40.80
2018-02-14T15:49:35.970Z,41.20
2018-02-14T15:52:03.491Z,41.00
2018-02-14T15:54:31.006Z,40.40
2018-02-14T15:57:00.486Z,40.40
2018-02-14T15:59:28.014Z,41.10
2018-02-14T16:01:55.571Z,41.90
2018-02-14T16:04:24.830Z,41.90
2018-02-14T16:06:52.355Z,41.80
2018-02-14T16:09:20.668Z,43.00
2018-02-14T16:11:48.210Z,42.90
2018-02-14T16:14:15.743Z,47.20
2018-02-14T16:16:44.091Z,50.70
2018-02-14T16:19:11.637Z,50.60
2018-02-14T16:21:39.351Z,51.70
2018-02-14T16:24:07.635Z,53.90
2018-02-14T16:26:35.190Z,53.90
2018-02-14T16:29:03.480Z,55.40
2018-02-14T16:31:31.033Z,55.40
2018-02-14T16:33:58.558Z,56.00
2018-02-14T16:36:26.927Z,55.90
2018-02-14T16:38:54.429Z,55.90
2018-02-14T16:41:21.952Z,56.20
2018-02-14T16:43:49.499Z,54.80
2018-02-14T16:46:17.023Z,54.80
2018-02-14T16:48:46.504Z,55.00
2018-02-14T16:51:14.018Z,55.50
2018-02-14T16:53:41.576Z,56.00
2018-02-14T16:56:09.099Z,57.20
2018-02-14T16:58:36.663Z,58.10
2018-02-14T17:01:04.188Z,58.80
2018-02-14T17:03:33.442Z,59.50
2018-02-14T17:06:01.938Z,59.40
2018-02-14T17:08:30.422Z,59.70
2018-02-14T17:10:58.100Z,60.10
2018-02-14T17:13:26.429Z,60.50
2018-02-14T17:15:53.947Z,60.50
2018-02-14T17:18:22.274Z,60.80
2018-02-14T17:20:49.794Z,60.80
2018-02-14T17:23:17.347Z,61.70
2018-02-14T17:25:45.634Z,62.40
2018-02-14T17:28:13.149Z,62.40
2018-02-14T17:30:40.703Z,62.20
2018-02-14T17:33:08.226Z,62.30
2018-02-14T17:35:35.790Z,62.80
2018-02-14T17:38:03.306Z,63.10
2018-02-14T17:40:32.247Z,63.90
2018-02-14T17:42:59.852Z,63.80
2018-02-14T17:45:29.056Z,64.50
2018-02-14T17:47:57.373Z,64.60
2018-02-14T17:50:24.900Z,64.70
2018-02-14T17:52:52.455Z,65.20
2018-02-14T17:55:20.014Z,65.10
2018-02-14T17:57:47.546Z,65.10
2018-02-14T18:00:15.107Z,65.20
2018-02-14T18:02:43.406Z,65.10
2018-02-14T18:05:10.970Z,65.20
2018-02-14T18:07:38.516Z,65.30
2018-02-14T18:10:07.793Z,66.00
2018-02-14T18:12:35.346Z,65.90
2018-02-14T18:15:02.868Z,66.40
2018-02-14T18:17:30.424Z,67.10
2018-02-14T18:19:57.966Z,66.80
2018-02-14T18:22:25.520Z,67.00
2018-02-14T18:24:54.022Z,67.60
2018-02-14T18:27:21.579Z,67.50
2018-02-14T18:29:49.103Z,67.60
2018-02-14T18:32:16.626Z,67.90
2018-02-14T18:34:44.175Z,67.70
2018-02-14T18:37:11.719Z,67.50
2018-02-14T18:39:39.322Z,67.70
2018-02-14T18:42:06.830Z,67.60
2018-02-14T18:44:34.390Z,68.00
2018-02-14T18:47:01.935Z,68.50
2018-02-14T18:49:29.513Z,68.40
2018-02-14T18:51:57.100Z,68.80
2018-02-14T18:54:24.627Z,68.80
2018-02-14T18:56:52.179Z,69.50
2018-02-14T18:59:19.708Z,69.80
2018-02-14T19:01:48.258Z,70.30
2018-02-14T19:04:15.826Z,69.90
2018-02-14T19:06:43.420Z,69.60
2018-02-14T19:09:10.989Z,69.10
2018-02-14T19:11:38.643Z,68.80
2018-02-14T19:14:06.246Z,70.00
2018-02-14T19:16:33.779Z,69.60
2018-02-14T19:19:01.349Z,70.00
2018-02-14T19:21:28.896Z,70.00
2018-02-14T19:23:56.424Z,70.00
2018-02-14T19:26:24.742Z,68.80
2018-02-14T19:28:52.270Z,68.80
2018-02-14T19:31:19.819Z,69.10
2018-02-14T19:33:48.119Z,69.00
2018-02-14T19:36:15.854Z,69.00
2018-02-14T19:38:44.184Z,68.60
2018-02-14T19:41:11.704Z,68.60
2018-02-14T19:43:40.026Z,68.40
2018-02-14T19:46:07.746Z,68.20
2018-02-14T19:48:35.303Z,68.80
2018-02-14T19:51:02.822Z,68.00
2018-02-14T19:53:30.651Z,67.90
2018-02-14T19:55:58.169Z,68.20
2018-02-14T19:58:26.463Z,68.40
2018-02-14T20:00:54.018Z,68.30
2018-02-14T20:03:21.542Z,69.10
2018-02-14T20:05:49.102Z,69.70
2018-02-14T20:08:16.625Z,69.40
2018-02-14T20:10:44.195Z,68.80
2018-02-14T20:13:11.714Z,69.80
2018-02-14T20:15:40.011Z,68.10
2018-02-14T20:18:09.515Z,68.00
2018-02-14T20:20:37.999Z,68.20
2018-02-14T20:23:05.548Z,67.80
2018-02-14T20:25:33.070Z,67.30
2018-02-14T20:28:00.619Z,66.90
2018-02-14T20:30:29.095Z,66.80
2018-02-14T20:32:56.645Z,66.90
2018-02-14T20:35:24.196Z,66.40
2018-02-14T20:37:51.733Z,66.70
2018-02-14T20:40:19.293Z,66.40
2018-02-14T20:42:46.819Z,67.10
2018-02-14T20:45:15.142Z,67.30
2018-02-14T20:47:42.668Z,67.30
2018-02-14T20:50:10.202Z,67.50
2018-02-14T20:52:37.770Z,67.50
2018-02-14T20:55:06.918Z,67.50
2018-02-14T20:57:34.470Z,67.30
2018-02-14T21:00:02.003Z,67.30
2018-02-14T21:02:29.562Z,66.80
2018-02-14T21:04:57.098Z,67.60
2018-02-14T21:07:25.434Z,66.90
2018-02-14T21:09:53.145Z,66.80
2018-02-14T21:12:22.426Z,66.90
2018-02-14T21:14:50.751Z,66.90
2018-02-14T21:17:18.277Z,66.90
2018-02-14T21:19:45.825Z,66.70
2018-02-14T21:22:13.374Z,66.80
2018-02-14T21:24:41.890Z,66.80
2018-02-14T21:27:09.463Z,66.80
2018-02-14T21:29:36.986Z,67.30
2018-02-14T21:32:05.297Z,66.90
2018-02-14T21:34:32.822Z,66.80
2018-02-14T21:37:02.366Z,66.60
2018-02-14T21:39:29.904Z,66.50
2018-02-14T21:41:57.431Z,66.50
2018-02-14T21:44:24.993Z,66.50
2018-02-14T21:46:52.522Z,66.50
2018-02-14T21:49:20.082Z,65.90
2018-02-14T21:51:47.615Z,65.70
2018-02-14T21:54:15.192Z,65.60
2018-02-14T21:56:42.719Z,65.90
2018-02-14T21:59:10.256Z,66.90
2018-02-14T22:01:37.815Z,65.90
2018-02-14T22:04:06.102Z,66.10
2018-02-14T22:06:33.674Z,66.10
2018-02-14T22:09:01.196Z,65.60
2018-02-14T22:11:30.463Z,65.30
2018-02-14T22:13:58.005Z,65.30
2018-02-14T22:16:25.528Z,65.30
2018-02-14T22:18:53.086Z,65.70
2018-02-14T22:21:22.314Z,65.80
2018-02-14T22:23:49.858Z,65.80
2018-02-14T22:26:17.380Z,66.20
2018-02-14T22:28:44.936Z,66.50
2018-02-14T22:31:12.462Z,66.10
2018-02-14T22:33:39.999Z,67.00
2018-02-14T22:36:07.574Z,67.50
2018-02-14T22:38:35.126Z,66.80
2018-02-14T22:41:03.455Z,65.50
2018-02-14T22:43:30.976Z,65.50
2018-02-14T22:45:59.649Z,65.40
2018-02-14T22:48:27.173Z,65.50
2018-02-14T22:50:55.497Z,65.40
2018-02-14T22:53:23.090Z,65.20
2018-02-14T22:55:50.613Z,65.70
2018-02-14T22:58:18.170Z,65.20
2018-02-14T23:00:45.714Z,65.70
2018-02-14T23:03:15.216Z,65.20
2018-02-14T23:05:42.747Z,65.50
2018-02-14T23:08:10.304Z,64.90
2018-02-14T23:10:37.835Z,65.00
2018-02-14T23:13:05.376Z,65.30
2018-02-14T23:15:32.961Z,65.50
2018-02-14T23:18:00.577Z,65.30
2018-02-14T23:20:28.136Z,65.00
2018-02-14T23:22:55.665Z,65.40
2018-02-14T23:25:23.990Z,66.20
2018-02-14T23:27:51.514Z,65.40
2018-02-14T23:30:19.043Z,65.50
2018-02-14T23:32:46.602Z,65.80
2018-02-14T23:35:14.895Z,64.70
2018-02-14T23:37:43.223Z,65.90
2018-02-14T23:40:10.751Z,65.90
2018-02-14T23:42:38.306Z,65.90
2018-02-14T23:45:05.839Z,66.00
2018-02-14T23:47:34.307Z,65.40
2018-02-14T23:50:01.870Z,65.40
2018-02-14T23:52:29.401Z,65.10
2018-02-14T23:54:56.960Z,63.70
2018-02-14T23:57:24.489Z,63.40
2018-02-14T23:59:52.044Z,63.50
